N11059 KLNK-KBDL
Flight info
| Callsign | N11059 |
|---|---|
| Flight time | N/A |
| Altitude | 21000 |
| Route | KLNK DCT TYTAN DCT WIVEY DCT MANAA DCT YEBTY DCT QUOTE DCT HODSU DCT SPCTR DCT SAAMS DCT MAARS DCT TRACE DCT HERMA DCT OCASA DCT ARRKK STELA11 KBDL |
| Aircraft | BE18/M-V/N |
Departure
| Time | 2026-04-29 05:26 |
|---|---|
| Airport | Lincoln Airport (KLNK) |
Arrival
| Time | N/A |
|---|---|
| Airport | Bradley International Airport (KBDL) |
| Time | Latitude | Longitude | Altitude | Speed | Heading |
|---|---|---|---|---|---|
| 2026-04-29 05:14 | 40.83910 | -96.75715 | 1184 ft | 0 kts | 90° |
| 2026-04-29 05:16 | 40.83910 | -96.75708 | 1184 ft | 5 kts | 92° |
| 2026-04-29 05:17 | 40.83868 | -96.75684 | 1184 ft | 12 kts | 183° |
| 2026-04-29 05:17 | 40.83758 | -96.75690 | 1187 ft | 11 kts | 222° |
| 2026-04-29 05:17 | 40.83757 | -96.75806 | 1189 ft | 16 kts | 271° |
| 2026-04-29 05:17 | 40.83758 | -96.75848 | 1189 ft | 0 kts | 272° |
| 2026-04-29 05:20 | 40.83759 | -96.75854 | 1189 ft | 4 kts | 272° |
| 2026-04-29 05:20 | 40.83723 | -96.75901 | 1189 ft | 14 kts | 182° |
| 2026-04-29 05:21 | 40.83594 | -96.75900 | 1192 ft | 22 kts | 181° |
| 2026-04-29 05:21 | 40.83428 | -96.75904 | 1196 ft | 26 kts | 180° |
| 2026-04-29 05:21 | 40.83277 | -96.75905 | 1198 ft | 15 kts | 180° |
| 2026-04-29 05:21 | 40.83175 | -96.75905 | 1202 ft | 14 kts | 179° |
| 2026-04-29 05:22 | 40.83075 | -96.75906 | 1204 ft | 15 kts | 181° |
| 2026-04-29 05:22 | 40.82965 | -96.75908 | 1204 ft | 17 kts | 180° |
| 2026-04-29 05:22 | 40.82860 | -96.75947 | 1207 ft | 16 kts | 228° |
| 2026-04-29 05:22 | 40.82799 | -96.76030 | 1211 ft | 2 kts | 224° |
| 2026-04-29 05:23 | 40.82785 | -96.76047 | 1211 ft | 4 kts | 224° |
| 2026-04-29 05:23 | 40.82773 | -96.76077 | 1211 ft | 0 kts | 255° |
| 2026-04-29 05:24 | 40.82773 | -96.76114 | 1210 ft | 9 kts | 285° |
| 2026-04-29 05:24 | 40.82829 | -96.76190 | 1211 ft | 11 kts | 1° |
| 2026-04-29 05:24 | 40.82832 | -96.76190 | 1211 ft | 0 kts | 359° |
| 2026-04-29 05:25 | 40.82983 | -96.76199 | 1213 ft | 55 kts | 357° |
| 2026-04-29 05:25 | 40.83539 | -96.76183 | 1209 ft | 108 kts | 359° |
| 2026-04-29 05:25 | 40.84390 | -96.76194 | 1362 ft | 129 kts | 358° |
| 2026-04-29 05:25 | 40.85358 | -96.76139 | 1515 ft | 147 kts | 2° |
| 2026-04-29 05:26 | 40.86391 | -96.76069 | 1840 ft | 152 kts | 1° |
| 2026-04-29 05:26 | 40.87430 | -96.76029 | 2210 ft | 150 kts | 359° |
| 2026-04-29 05:26 | 40.88457 | -96.76028 | 2547 ft | 147 kts | 358° |
| 2026-04-29 05:26 | 40.89503 | -96.76085 | 2652 ft | 157 kts | 356° |
| 2026-04-29 05:27 | 40.90577 | -96.76226 | 2905 ft | 152 kts | 352° |
| 2026-04-29 05:27 | 40.92557 | -96.76672 | 3790 ft | 142 kts | 348° |
| 2026-04-29 05:27 | 40.93518 | -96.76963 | 4238 ft | 141 kts | 347° |
| 2026-04-29 05:28 | 40.94484 | -96.77206 | 4702 ft | 142 kts | 349° |
| 2026-04-29 05:28 | 40.95462 | -96.77437 | 5160 ft | 143 kts | 349° |
| 2026-04-29 05:28 | 40.96445 | -96.77668 | 5618 ft | 144 kts | 348° |
| 2026-04-29 05:28 | 40.97434 | -96.77901 | 6081 ft | 144 kts | 347° |
| 2026-04-29 05:29 | 40.98422 | -96.77876 | 6557 ft | 148 kts | 10° |
| 2026-04-29 05:29 | 40.99339 | -96.77228 | 7006 ft | 155 kts | 36° |
| 2026-04-29 05:29 | 40.99999 | -96.76063 | 7463 ft | 160 kts | 59° |
| 2026-04-29 05:29 | 41.00246 | -96.74648 | 7920 ft | 158 kts | 85° |
| 2026-04-29 05:30 | 41.00020 | -96.73251 | 8381 ft | 155 kts | 114° |
| 2026-04-29 05:30 | 40.99466 | -96.72059 | 8857 ft | 150 kts | 121° |
| 2026-04-29 05:30 | 40.98946 | -96.70879 | 9351 ft | 149 kts | 120° |
| 2026-04-29 05:30 | 40.98438 | -96.69693 | 9850 ft | 150 kts | 120° |
| 2026-04-29 05:31 | 40.97910 | -96.68461 | 10328 ft | 157 kts | 120° |
| 2026-04-29 05:31 | 40.97355 | -96.67159 | 10692 ft | 171 kts | 120° |
| 2026-04-29 05:31 | 40.96760 | -96.65755 | 10986 ft | 183 kts | 120° |
| 2026-04-29 05:31 | 40.96130 | -96.64252 | 11283 ft | 190 kts | 120° |
| 2026-04-29 05:32 | 40.95626 | -96.62627 | 11578 ft | 193 kts | 104° |
| 2026-04-29 05:32 | 40.95366 | -96.60879 | 11881 ft | 194 kts | 94° |
| 2026-04-29 05:32 | 40.95232 | -96.59096 | 12192 ft | 195 kts | 90° |
| 2026-04-29 05:32 | 40.95163 | -96.57304 | 12496 ft | 194 kts | 84° |
| 2026-04-29 05:33 | 40.95248 | -96.55527 | 12783 ft | 193 kts | 79° |
| 2026-04-29 05:33 | 40.95348 | -96.53751 | 13090 ft | 194 kts | 82° |
| 2026-04-29 05:33 | 40.95392 | -96.51960 | 13412 ft | 195 kts | 83° |
| 2026-04-29 05:33 | 40.95448 | -96.50196 | 13732 ft | 194 kts | 81° |
| 2026-04-29 05:34 | 40.95522 | -96.48412 | 14049 ft | 194 kts | 81° |
| 2026-04-29 05:34 | 40.95586 | -96.46626 | 14341 ft | 194 kts | 82° |
| 2026-04-29 05:34 | 40.95646 | -96.44839 | 14633 ft | 195 kts | 82° |
| 2026-04-29 05:34 | 40.95708 | -96.43050 | 14927 ft | 195 kts | 82° |
| 2026-04-29 05:35 | 40.95771 | -96.41264 | 15224 ft | 194 kts | 82° |
| 2026-04-29 05:35 | 40.95835 | -96.39479 | 15527 ft | 194 kts | 82° |
| 2026-04-29 05:35 | 40.95897 | -96.37697 | 15820 ft | 194 kts | 83° |
| 2026-04-29 05:35 | 40.95958 | -96.35943 | 16123 ft | 194 kts | 83° |
| 2026-04-29 05:36 | 40.96019 | -96.34165 | 16438 ft | 193 kts | 83° |
| 2026-04-29 05:36 | 40.96081 | -96.32393 | 16744 ft | 193 kts | 83° |
| 2026-04-29 05:36 | 40.96142 | -96.30617 | 16992 ft | 197 kts | 83° |
| 2026-04-29 05:36 | 40.96207 | -96.28750 | 17071 ft | 209 kts | 83° |
| 2026-04-29 05:37 | 40.96272 | -96.26803 | 17156 ft | 213 kts | 84° |
| 2026-04-29 05:37 | 40.96335 | -96.24853 | 17235 ft | 212 kts | 84° |
| 2026-04-29 05:37 | 40.96403 | -96.22912 | 17323 ft | 211 kts | 84° |
| 2026-04-29 05:37 | 40.96468 | -96.20974 | 17382 ft | 211 kts | 84° |
| 2026-04-29 05:38 | 40.96533 | -96.19056 | 17456 ft | 212 kts | 84° |
| 2026-04-29 05:38 | 40.96596 | -96.17108 | 17538 ft | 212 kts | 84° |
| 2026-04-29 05:38 | 40.96660 | -96.15155 | 17616 ft | 212 kts | 84° |
| 2026-04-29 05:38 | 40.96725 | -96.13202 | 17707 ft | 213 kts | 84° |
| 2026-04-29 05:39 | 40.96790 | -96.11244 | 17786 ft | 213 kts | 84° |
| 2026-04-29 05:39 | 40.96852 | -96.09284 | 17872 ft | 213 kts | 85° |
| 2026-04-29 05:39 | 40.96916 | -96.07326 | 17975 ft | 213 kts | 85° |
| 2026-04-29 05:39 | 40.96979 | -96.05366 | 18060 ft | 213 kts | 85° |
| 2026-04-29 05:40 | 40.97042 | -96.03406 | 18141 ft | 213 kts | 85° |
| 2026-04-29 05:40 | 40.97104 | -96.01446 | 18222 ft | 213 kts | 85° |
| 2026-04-29 05:40 | 40.97165 | -95.99515 | 18300 ft | 213 kts | 85° |
| 2026-04-29 05:40 | 40.97228 | -95.97560 | 18386 ft | 213 kts | 85° |
| 2026-04-29 05:41 | 40.97288 | -95.95604 | 18461 ft | 213 kts | 85° |
| 2026-04-29 05:41 | 40.97348 | -95.93647 | 18531 ft | 213 kts | 85° |
| 2026-04-29 05:41 | 40.97410 | -95.91694 | 18600 ft | 213 kts | 85° |
| 2026-04-29 05:41 | 40.97469 | -95.89742 | 18686 ft | 211 kts | 85° |
| 2026-04-29 05:42 | 40.97528 | -95.87834 | 18805 ft | 203 kts | 85° |
| 2026-04-29 05:42 | 40.97583 | -95.85979 | 18913 ft | 200 kts | 85° |
| 2026-04-29 05:42 | 40.97641 | -95.84147 | 19021 ft | 198 kts | 85° |
| 2026-04-29 05:42 | 40.97696 | -95.82339 | 19132 ft | 196 kts | 85° |
| 2026-04-29 05:43 | 40.97747 | -95.80571 | 19241 ft | 194 kts | 85° |
| 2026-04-29 05:43 | 40.97801 | -95.78796 | 19349 ft | 192 kts | 85° |
| 2026-04-29 05:43 | 40.97853 | -95.77034 | 19459 ft | 191 kts | 85° |
| 2026-04-29 05:43 | 40.97905 | -95.75287 | 19569 ft | 189 kts | 85° |
| 2026-04-29 05:44 | 40.97957 | -95.73525 | 19596 ft | 196 kts | 85° |
| 2026-04-29 05:44 | 40.98010 | -95.71696 | 19601 ft | 202 kts | 85° |
| 2026-04-29 05:44 | 40.98069 | -95.69822 | 19599 ft | 206 kts | 85° |
| 2026-04-29 05:44 | 40.98161 | -95.67940 | 19628 ft | 209 kts | 80° |
| 2026-04-29 05:45 | 40.98397 | -95.66030 | 19649 ft | 214 kts | 72° |
| 2026-04-29 05:45 | 40.98716 | -95.64096 | 19654 ft | 217 kts | 74° |
| 2026-04-29 05:45 | 40.98959 | -95.62128 | 19711 ft | 215 kts | 77° |
| 2026-04-29 05:45 | 40.99202 | -95.60193 | 19814 ft | 212 kts | 75° |
| 2026-04-29 05:46 | 40.99472 | -95.58292 | 19920 ft | 209 kts | 75° |
| 2026-04-29 05:46 | 40.99725 | -95.56399 | 20026 ft | 208 kts | 76° |
| 2026-04-29 05:46 | 40.99965 | -95.54519 | 20158 ft | 206 kts | 75° |
| 2026-04-29 05:46 | 41.00215 | -95.52660 | 20255 ft | 204 kts | 74° |
| 2026-04-29 05:47 | 41.00464 | -95.50819 | 20359 ft | 203 kts | 75° |
| 2026-04-29 05:47 | 41.00706 | -95.48986 | 20463 ft | 202 kts | 75° |
| 2026-04-29 05:47 | 41.00946 | -95.47159 | 20567 ft | 201 kts | 75° |
| 2026-04-29 05:47 | 41.01185 | -95.45366 | 20665 ft | 200 kts | 75° |
| 2026-04-29 05:48 | 41.01425 | -95.43552 | 20766 ft | 200 kts | 75° |
| 2026-04-29 05:48 | 41.01663 | -95.41747 | 20867 ft | 199 kts | 75° |
| 2026-04-29 05:48 | 41.01901 | -95.39944 | 20966 ft | 199 kts | 75° |
| 2026-04-29 05:48 | 41.02138 | -95.38146 | 21063 ft | 198 kts | 75° |
| 2026-04-29 05:49 | 41.02374 | -95.36351 | 21165 ft | 198 kts | 74° |
| 2026-04-29 05:49 | 41.02616 | -95.34527 | 21157 ft | 204 kts | 75° |
| 2026-04-29 05:49 | 41.02859 | -95.32679 | 21164 ft | 209 kts | 75° |
| 2026-04-29 05:49 | 41.03107 | -95.30772 | 21158 ft | 212 kts | 76° |
| 2026-04-29 05:50 | 41.03358 | -95.28840 | 21162 ft | 214 kts | 76° |
| 2026-04-29 05:50 | 41.03614 | -95.26893 | 21168 ft | 215 kts | 76° |
| 2026-04-29 05:50 | 41.03871 | -95.24932 | 21164 ft | 217 kts | 76° |
| 2026-04-29 05:50 | 41.04126 | -95.22964 | 21167 ft | 217 kts | 76° |
| 2026-04-29 05:51 | 41.04384 | -95.20986 | 21170 ft | 218 kts | 76° |
| 2026-04-29 05:51 | 41.04643 | -95.19003 | 21170 ft | 219 kts | 76° |
| 2026-04-29 05:51 | 41.04901 | -95.17014 | 21170 ft | 219 kts | 76° |
| 2026-04-29 05:51 | 41.05158 | -95.15025 | 21166 ft | 219 kts | 76° |
| 2026-04-29 05:52 | 41.05413 | -95.13062 | 21156 ft | 219 kts | 76° |
| 2026-04-29 05:52 | 41.05671 | -95.11073 | 21151 ft | 219 kts | 76° |
| 2026-04-29 05:52 | 41.05927 | -95.09085 | 21154 ft | 219 kts | 76° |
| 2026-04-29 05:52 | 41.06183 | -95.07098 | 21150 ft | 219 kts | 76° |
| 2026-04-29 05:53 | 41.06440 | -95.05110 | 21151 ft | 219 kts | 76° |
| 2026-04-29 05:53 | 41.06696 | -95.03120 | 21144 ft | 219 kts | 76° |
| 2026-04-29 05:53 | 41.06950 | -95.01130 | 21140 ft | 219 kts | 76° |
| 2026-04-29 05:53 | 41.07206 | -94.99143 | 21134 ft | 219 kts | 76° |
| 2026-04-29 05:54 | 41.07461 | -94.97156 | 21141 ft | 219 kts | 76° |
| 2026-04-29 05:54 | 41.07712 | -94.95193 | 21133 ft | 219 kts | 77° |
| 2026-04-29 05:54 | 41.07966 | -94.93206 | 21136 ft | 219 kts | 77° |
| 2026-04-29 05:54 | 41.08218 | -94.91214 | 21133 ft | 219 kts | 77° |
| 2026-04-29 05:55 | 41.08472 | -94.89224 | 21130 ft | 219 kts | 77° |
| 2026-04-29 05:55 | 41.08726 | -94.87234 | 21125 ft | 219 kts | 77° |
| 2026-04-29 05:55 | 41.08978 | -94.85242 | 21118 ft | 219 kts | 77° |
| 2026-04-29 05:55 | 41.09230 | -94.83252 | 21115 ft | 219 kts | 77° |
| 2026-04-29 05:56 | 41.09483 | -94.81261 | 21115 ft | 219 kts | 77° |
| 2026-04-29 05:56 | 41.09735 | -94.79271 | 21113 ft | 219 kts | 77° |
| 2026-04-29 05:56 | 41.09982 | -94.77307 | 21111 ft | 219 kts | 77° |
| 2026-04-29 05:56 | 41.10233 | -94.75317 | 21110 ft | 219 kts | 77° |
| 2026-04-29 05:57 | 41.10484 | -94.73330 | 21114 ft | 219 kts | 77° |
| 2026-04-29 05:57 | 41.10733 | -94.71339 | 21113 ft | 219 kts | 77° |
| 2026-04-29 05:57 | 41.10984 | -94.69347 | 21112 ft | 219 kts | 77° |
| 2026-04-29 05:57 | 41.11234 | -94.67354 | 21117 ft | 219 kts | 77° |
| 2026-04-29 05:58 | 41.11482 | -94.65360 | 21120 ft | 219 kts | 77° |
| 2026-04-29 05:58 | 41.11732 | -94.63364 | 21116 ft | 219 kts | 77° |
| 2026-04-29 05:58 | 41.11982 | -94.61369 | 21115 ft | 219 kts | 77° |
| 2026-04-29 05:58 | 41.12227 | -94.59402 | 21118 ft | 219 kts | 77° |
| 2026-04-29 05:59 | 41.12475 | -94.57407 | 21113 ft | 219 kts | 77° |
| 2026-04-29 05:59 | 41.12726 | -94.55412 | 21112 ft | 219 kts | 78° |
| 2026-04-29 05:59 | 41.12969 | -94.53419 | 21115 ft | 219 kts | 78° |
| 2026-04-29 05:59 | 41.13215 | -94.51424 | 21118 ft | 219 kts | 78° |
| 2026-04-29 06:00 | 41.13464 | -94.49430 | 21113 ft | 219 kts | 78° |
| 2026-04-29 06:00 | 41.13710 | -94.47436 | 21119 ft | 219 kts | 78° |
| 2026-04-29 06:00 | 41.13957 | -94.45439 | 21119 ft | 219 kts | 78° |
| 2026-04-29 06:00 | 41.14202 | -94.43440 | 21118 ft | 220 kts | 78° |
| 2026-04-29 06:01 | 41.14449 | -94.41442 | 21122 ft | 220 kts | 78° |
| 2026-04-29 06:01 | 41.14691 | -94.39468 | 21123 ft | 220 kts | 78° |
| 2026-04-29 06:01 | 41.14935 | -94.37470 | 21123 ft | 220 kts | 78° |
| 2026-04-29 06:01 | 41.15180 | -94.35467 | 21119 ft | 220 kts | 78° |
| 2026-04-29 06:02 | 41.15426 | -94.33468 | 21120 ft | 220 kts | 78° |
| 2026-04-29 06:02 | 41.15670 | -94.31470 | 21120 ft | 220 kts | 78° |
| 2026-04-29 06:02 | 41.15912 | -94.29468 | 21121 ft | 220 kts | 78° |
| 2026-04-29 06:02 | 41.16156 | -94.27467 | 21115 ft | 220 kts | 78° |
| 2026-04-29 06:03 | 41.16400 | -94.25468 | 21116 ft | 219 kts | 78° |
| 2026-04-29 06:03 | 41.16639 | -94.23495 | 21116 ft | 219 kts | 78° |
| 2026-04-29 06:03 | 41.16881 | -94.21496 | 21113 ft | 219 kts | 78° |
| 2026-04-29 06:03 | 41.17123 | -94.19499 | 21116 ft | 219 kts | 78° |
| 2026-04-29 06:04 | 41.17368 | -94.17500 | 21121 ft | 220 kts | 79° |
| 2026-04-29 06:04 | 41.17605 | -94.15497 | 21121 ft | 220 kts | 79° |
| 2026-04-29 06:04 | 41.17845 | -94.13495 | 21118 ft | 220 kts | 79° |
| 2026-04-29 06:04 | 41.18089 | -94.11493 | 21114 ft | 220 kts | 79° |
| 2026-04-29 06:05 | 41.18329 | -94.09490 | 21115 ft | 220 kts | 79° |
| 2026-04-29 06:05 | 41.18564 | -94.07515 | 21111 ft | 220 kts | 79° |
| 2026-04-29 06:05 | 41.18804 | -94.05513 | 21112 ft | 220 kts | 79° |
| 2026-04-29 06:05 | 41.19044 | -94.03513 | 21107 ft | 219 kts | 79° |
| 2026-04-29 06:06 | 41.19283 | -94.01510 | 21109 ft | 219 kts | 79° |
| 2026-04-29 06:06 | 41.19521 | -93.99510 | 21110 ft | 219 kts | 79° |
| 2026-04-29 06:06 | 41.19759 | -93.97509 | 21108 ft | 219 kts | 79° |
| 2026-04-29 06:06 | 41.19997 | -93.95509 | 21108 ft | 219 kts | 79° |
| 2026-04-29 06:07 | 41.20234 | -93.93509 | 21112 ft | 219 kts | 79° |
| 2026-04-29 06:07 | 41.20468 | -93.91533 | 21111 ft | 220 kts | 79° |
| 2026-04-29 06:07 | 41.20705 | -93.89530 | 21108 ft | 220 kts | 79° |
| 2026-04-29 06:07 | 41.20942 | -93.87527 | 21105 ft | 220 kts | 79° |
| 2026-04-29 06:08 | 41.21178 | -93.85523 | 21108 ft | 220 kts | 79° |
| 2026-04-29 06:08 | 41.21413 | -93.83520 | 21106 ft | 220 kts | 79° |
| 2026-04-29 06:08 | 41.21649 | -93.81517 | 21106 ft | 220 kts | 79° |
| 2026-04-29 06:08 | 41.21887 | -93.79513 | 21098 ft | 219 kts | 79° |
| 2026-04-29 06:09 | 41.22119 | -93.77514 | 21101 ft | 219 kts | 80° |
| 2026-04-29 06:09 | 41.22349 | -93.75515 | 21102 ft | 219 kts | 81° |
| 2026-04-29 06:09 | 41.22567 | -93.73514 | 21100 ft | 219 kts | 81° |
| 2026-04-29 06:09 | 41.22855 | -93.71563 | 21100 ft | 218 kts | 73° |
| 2026-04-29 06:10 | 41.23220 | -93.69613 | 21102 ft | 218 kts | 74° |
| 2026-04-29 06:10 | 41.23533 | -93.67639 | 21105 ft | 218 kts | 76° |
| 2026-04-29 06:10 | 41.23845 | -93.65666 | 21105 ft | 218 kts | 75° |
| 2026-04-29 06:10 | 41.24178 | -93.63700 | 21101 ft | 218 kts | 75° |
| 2026-04-29 06:11 | 41.24504 | -93.61729 | 21100 ft | 218 kts | 75° |
| 2026-04-29 06:11 | 41.24821 | -93.59760 | 21105 ft | 218 kts | 75° |
| 2026-04-29 06:11 | 41.25144 | -93.57788 | 21106 ft | 218 kts | 75° |
| 2026-04-29 06:11 | 41.25470 | -93.55819 | 21101 ft | 218 kts | 75° |
| 2026-04-29 06:12 | 41.25787 | -93.53876 | 21099 ft | 218 kts | 75° |
| 2026-04-29 06:12 | 41.26106 | -93.51908 | 21100 ft | 218 kts | 75° |
| 2026-04-29 06:12 | 41.26428 | -93.49941 | 21097 ft | 218 kts | 75° |
| 2026-04-29 06:12 | 41.26751 | -93.47974 | 21101 ft | 218 kts | 75° |
| 2026-04-29 06:13 | 41.27069 | -93.46004 | 21103 ft | 218 kts | 75° |
| 2026-04-29 06:13 | 41.27390 | -93.44032 | 21108 ft | 218 kts | 75° |
| 2026-04-29 06:13 | 41.27711 | -93.42060 | 21104 ft | 218 kts | 75° |
| 2026-04-29 06:13 | 41.28032 | -93.40084 | 21106 ft | 219 kts | 75° |
| 2026-04-29 06:14 | 41.28351 | -93.38109 | 21105 ft | 219 kts | 75° |
| 2026-04-29 06:14 | 41.28670 | -93.36134 | 21107 ft | 219 kts | 75° |
| 2026-04-29 06:14 | 41.28992 | -93.34158 | 21105 ft | 219 kts | 75° |
| 2026-04-29 06:14 | 41.29306 | -93.32207 | 21107 ft | 219 kts | 75° |
| 2026-04-29 06:15 | 41.29624 | -93.30232 | 21107 ft | 219 kts | 75° |
| 2026-04-29 06:15 | 41.29943 | -93.28254 | 21112 ft | 219 kts | 75° |
| 2026-04-29 06:15 | 41.30262 | -93.26276 | 21140 ft | 219 kts | 76° |
| 2026-04-29 06:15 | 41.30580 | -93.24299 | 21125 ft | 219 kts | 76° |
| 2026-04-29 06:16 | 41.30895 | -93.22324 | 21116 ft | 218 kts | 76° |
| 2026-04-29 06:16 | 41.31211 | -93.20357 | 21111 ft | 217 kts | 76° |
| 2026-04-29 06:16 | 41.31527 | -93.18392 | 21110 ft | 217 kts | 76° |
| 2026-04-29 06:16 | 41.31839 | -93.16433 | 21111 ft | 216 kts | 76° |
| 2026-04-29 06:17 | 41.32152 | -93.14475 | 21111 ft | 216 kts | 76° |
| 2026-04-29 06:17 | 41.32466 | -93.12519 | 21115 ft | 216 kts | 76° |
| 2026-04-29 06:17 | 41.32777 | -93.10558 | 21112 ft | 216 kts | 76° |
| 2026-04-29 06:17 | 41.33089 | -93.08600 | 21109 ft | 216 kts | 76° |
| 2026-04-29 06:18 | 41.33397 | -93.06670 | 21107 ft | 216 kts | 76° |
| 2026-04-29 06:18 | 41.33708 | -93.04716 | 21103 ft | 216 kts | 77° |
| 2026-04-29 06:18 | 41.34018 | -93.02762 | 21106 ft | 216 kts | 77° |
| 2026-04-29 06:18 | 41.34324 | -93.00808 | 21121 ft | 216 kts | 77° |
| 2026-04-29 06:19 | 41.34635 | -92.98853 | 21123 ft | 216 kts | 77° |
| 2026-04-29 06:19 | 41.34947 | -92.96893 | 21121 ft | 216 kts | 77° |
| 2026-04-29 06:19 | 41.35255 | -92.94936 | 21120 ft | 216 kts | 77° |
| 2026-04-29 06:19 | 41.35564 | -92.92976 | 21120 ft | 216 kts | 77° |
| 2026-04-29 06:20 | 41.35873 | -92.91016 | 21123 ft | 216 kts | 77° |
| 2026-04-29 06:20 | 41.36183 | -92.89055 | 21122 ft | 216 kts | 77° |
| 2026-04-29 06:20 | 41.36486 | -92.87121 | 21122 ft | 217 kts | 77° |
| 2026-04-29 06:20 | 41.36794 | -92.85159 | 21119 ft | 216 kts | 77° |
| 2026-04-29 06:21 | 41.37102 | -92.83200 | 21121 ft | 216 kts | 77° |
| 2026-04-29 06:21 | 41.37409 | -92.81239 | 21094 ft | 216 kts | 77° |
| 2026-04-29 06:21 | 41.37716 | -92.79278 | 21094 ft | 216 kts | 77° |
| 2026-04-29 06:21 | 41.38023 | -92.77316 | 21093 ft | 216 kts | 77° |
| 2026-04-29 06:22 | 41.38329 | -92.75356 | 21093 ft | 216 kts | 77° |
| 2026-04-29 06:22 | 41.38634 | -92.73397 | 21091 ft | 216 kts | 77° |